Time;durP1;ratioP1;P1;durP2;ratioP2;P2;SDS_P1;SDS_P2;PMS_P1;PMS_P2;Temp;Humidity;BMP_temperature;BMP_pressure;BME280_temperature;BME280_humidity;BME280_pressure;Samples;Min_cycle;Max_cycle;Signal;HPM_P1;HPM_P2
2021/03/07 00:00:58;;;;;;;9.93;5.82;;;2.70;99.90;;;;;;4967147;29;20259;-85
2021/03/07 00:03:24;;;;;;;8.20;5.57;;;2.70;99.90;;;;;;4960695;29;20223;-85
2021/03/07 00:05:51;;;;;;;11.07;6.38;;;2.70;99.90;;;;;;4967337;29;20241;-85
2021/03/07 00:08:18;;;;;;;11.35;5.60;;;2.70;99.90;;;;;;4971330;29;20265;-85
2021/03/07 00:10:45;;;;;;;9.65;7.13;;;2.60;99.90;;;;;;4963904;28;20295;-85
2021/03/07 00:13:11;;;;;;;8.80;7.65;;;2.60;99.90;;;;;;4973519;28;20209;-85
2021/03/07 00:15:38;;;;;;;13.10;6.35;;;2.70;99.90;;;;;;4960064;28;20239;-84
2021/03/07 00:18:06;;;;;;;10.20;5.00;;;2.70;99.90;;;;;;4978491;28;20274;-84
2021/03/07 00:20:34;;;;;;;10.43;5.00;;;2.60;99.90;;;;;;4964133;28;20229;-85
2021/03/07 00:23:00;;;;;;;9.73;6.57;;;2.70;99.90;;;;;;4967343;29;20225;-85
2021/03/07 00:25:27;;;;;;;6.82;5.20;;;2.60;99.90;;;;;;4962948;28;20217;-84
2021/03/07 00:27:54;;;;;;;10.98;4.78;;;2.60;99.90;;;;;;4975000;28;20213;-84
2021/03/07 00:30:21;;;;;;;9.98;5.75;;;2.60;99.90;;;;;;4963269;28;20270;-84
2021/03/07 00:32:47;;;;;;;13.75;6.50;;;2.60;99.90;;;;;;4953157;29;20294;-84
2021/03/07 00:35:15;;;;;;;5.90;4.90;;;2.50;99.90;;;;;;4962378;28;20210;-85
2021/03/07 00:37:42;;;;;;;9.57;6.10;;;2.50;99.90;;;;;;4950048;28;20264;-85
2021/03/07 00:40:11;;;;;;;7.53;5.75;;;2.50;99.90;;;;;;4963396;28;20290;-83
2021/03/07 00:42:40;;;;;;;9.30;4.78;;;2.40;99.90;;;;;;4965958;29;20246;-83
2021/03/07 00:45:09;;;;;;;10.07;5.68;;;2.50;99.90;;;;;;4973074;28;20207;-84
2021/03/07 00:47:35;;;;;;;7.50;5.47;;;2.50;99.90;;;;;;4967352;28;20230;-84
2021/03/07 00:50:04;;;;;;;12.15;6.13;;;2.50;99.90;;;;;;4974631;28;20203;-83
2021/03/07 00:52:31;;;;;;;11.95;5.85;;;2.60;99.90;;;;;;4965525;28;20258;-84
2021/03/07 00:54:58;;;;;;;9.20;5.68;;;2.60;99.90;;;;;;4975533;28;20259;-84
2021/03/07 00:57:25;;;;;;;12.25;5.82;;;2.60;99.90;;;;;;4976476;28;20230;-84
2021/03/07 00:59:51;;;;;;;8.52;5.32;;;2.70;99.90;;;;;;4971524;28;20222;-83
2021/03/07 01:02:19;;;;;;;7.30;5.93;;;2.90;99.90;;;;;;4977864;28;20275;-82
2021/03/07 01:04:46;;;;;;;8.82;5.70;;;3.00;99.90;;;;;;4980818;28;20227;-84
2021/03/07 01:07:12;;;;;;;6.45;5.05;;;3.10;99.90;;;;;;4980780;28;20192;-83
2021/03/07 01:09:40;;;;;;;9.38;5.00;;;3.20;99.90;;;;;;4999727;28;20221;-84
2021/03/07 01:12:07;;;;;;;8.85;5.32;;;3.20;99.90;;;;;;4988946;28;20218;-83
2021/03/07 01:14:34;;;;;;;5.57;4.22;;;3.20;99.90;;;;;;4980407;28;20191;-83
2021/03/07 01:17:01;;;;;;;10.05;5.82;;;3.20;99.90;;;;;;4980878;28;20209;-83
2021/03/07 01:19:28;;;;;;;7.70;5.43;;;3.30;99.90;;;;;;4968112;28;20675;-84
2021/03/07 01:21:55;;;;;;;9.02;5.40;;;3.30;99.90;;;;;;4964268;29;20231;-83
2021/03/07 01:24:22;;;;;;;9.10;4.72;;;3.30;99.90;;;;;;4964178;29;20334;-84
2021/03/07 01:26:50;;;;;;;5.70;3.95;;;3.40;99.90;;;;;;4954360;28;20203;-84
2021/03/07 02:19:22;;;;;;;4.10;3.30;;;3.80;99.90;;;;;;4935150;29;20233;-83
2021/03/07 07:13:13;;;;;;;5.97;3.60;;;4.10;99.90;;;;;;4963413;29;20209;-83
2021/03/07 07:16:04;;;;;;;6.70;4.20;;;4.10;99.90;;;;;;4954986;29;20219;-83
2021/03/07 07:18:36;;;;;;;7.28;3.55;;;4.10;99.90;;;;;;4952029;29;20235;-84
2021/03/07 07:26:49;;;;;;;6.28;3.55;;;4.30;99.90;;;;;;4956285;29;20214;-83
2021/03/07 07:36:32;;;;;;;7.13;3.80;;;4.40;99.90;;;;;;4937793;29;20203;-88
2021/03/07 07:45:45;;;;;;;6.43;3.95;;;4.30;99.90;;;;;;4952260;29;20215;-86
2021/03/07 07:48:42;;;;;;;6.07;4.60;;;4.30;99.90;;;;;;4941120;29;20895;-84
2021/03/07 07:58:00;;;;;;;11.82;4.85;;;4.50;99.90;;;;;;4895165;29;20756;-84
2021/03/07 08:00:59;;;;;;;6.00;4.82;;;4.60;99.90;;;;;;4958195;28;20201;-84
2021/03/07 08:03:37;;;;;;;8.15;4.72;;;4.60;99.90;;;;;;4958241;29;20307;-84
2021/03/07 08:06:05;;;;;;;11.15;5.35;;;4.50;99.90;;;;;;4962316;28;20217;-83
2021/03/07 08:08:36;;;;;;;5.57;4.75;;;4.50;99.90;;;;;;4967533;29;20226;-85
2021/03/07 08:11:05;;;;;;;6.35;5.72;;;4.60;99.90;;;;;;4971681;28;20217;-84
2021/03/07 08:13:52;;;;;;;7.03;4.82;;;4.70;99.90;;;;;;4973718;28;20210;-84
2021/03/07 08:16:40;;;;;;;4.97;3.95;;;4.60;99.90;;;;;;4981185;28;20218;-84
2021/03/07 08:19:10;;;;;;;8.68;4.18;;;4.60;99.90;;;;;;4973628;28;20223;-86
2021/03/07 08:22:03;;;;;;;5.82;5.10;;;4.60;99.90;;;;;;4967831;29;20298;-85
2021/03/07 08:24:55;;;;;;;6.10;4.57;;;4.70;99.90;;;;;;4963106;28;20557;-84
2021/03/07 08:27:37;;;;;;;6.18;4.78;;;4.70;99.90;;;;;;4966967;28;20198;-84
2021/03/07 08:30:07;;;;;;;8.43;4.70;;;4.70;99.90;;;;;;4968277;29;20306;-87
2021/03/07 08:32:37;;;;;;;12.90;5.80;;;4.70;99.90;;;;;;4972986;28;20229;-81
2021/03/07 08:35:19;;;;;;;6.30;5.70;;;4.70;99.90;;;;;;4973478;28;20206;-86
2021/03/07 08:38:10;;;;;;;4.55;4.15;;;4.80;99.90;;;;;;4966655;28;20245;-84
2021/03/07 08:43:55;;;;;;;5.07;4.65;;;4.80;99.90;;;;;;4977944;28;20368;-86
2021/03/07 08:46:26;;;;;;;6.40;5.00;;;5.00;99.90;;;;;;4960477;28;20222;-80
2021/03/07 08:48:55;;;;;;;9.45;5.20;;;5.00;99.90;;;;;;4976664;28;20230;-83
2021/03/07 08:51:32;;;;;;;6.10;4.78;;;5.00;99.90;;;;;;4970325;28;20262;-83
2021/03/07 08:54:03;;;;;;;6.65;4.88;;;5.10;99.90;;;;;;4965479;28;20207;-81
2021/03/07 08:56:31;;;;;;;8.65;5.32;;;5.10;99.90;;;;;;4964969;28;20231;-84
2021/03/07 08:58:58;;;;;;;6.07;5.47;;;5.10;99.90;;;;;;4964399;28;20223;-84
2021/03/07 09:01:26;;;;;;;9.23;6.03;;;5.20;99.90;;;;;;4952306;29;20206;-84
2021/03/07 09:03:53;;;;;;;6.68;5.30;;;5.30;99.90;;;;;;4956421;29;20623;-82
2021/03/07 09:06:20;;;;;;;7.47;5.35;;;5.40;99.90;;;;;;4966367;28;20203;-83
2021/03/07 09:08:48;;;;;;;12.45;6.40;;;5.50;99.90;;;;;;4969648;28;20231;-83
2021/03/07 09:11:15;;;;;;;5.90;5.25;;;5.50;99.90;;;;;;4967607;28;20222;-84
2021/03/07 09:13:49;;;;;;;6.65;5.70;;;5.60;99.90;;;;;;4966843;28;20217;-84
2021/03/07 09:16:16;;;;;;;9.65;5.80;;;5.50;99.90;;;;;;4968079;28;20221;-81
2021/03/07 09:18:43;;;;;;;9.93;5.70;;;5.60;99.90;;;;;;4974249;29;20266;-81
2021/03/07 09:21:12;;;;;;;5.60;4.97;;;5.60;99.90;;;;;;4973789;28;20207;-82
2021/03/07 09:23:40;;;;;;;7.53;6.20;;;5.60;99.90;;;;;;4968081;28;20335;-82
2021/03/07 09:26:10;;;;;;;5.85;5.30;;;5.50;99.90;;;;;;4965073;29;20279;-83
2021/03/07 09:45:15;;;;;;;10.23;6.78;;;5.50;99.90;;;;;;4973516;28;20210;-78
2021/03/07 10:36:23;;;;;;;11.30;6.60;;;8.60;94.90;;;;;;4942215;29;20285;-82
2021/03/07 10:55:40;;;;;;;8.75;7.25;;;9.40;93.80;;;;;;4975379;28;20198;-67
2021/03/07 10:58:07;;;;;;;11.60;7.30;;;9.70;93.00;;;;;;4968487;28;20235;-69
2021/03/07 11:00:34;;;;;;;11.52;8.55;;;9.50;92.60;;;;;;4971799;28;20206;-71
2021/03/07 11:03:01;;;;;;;15.30;8.35;;;9.50;92.50;;;;;;4971212;28;20256;-70
2021/03/07 11:05:28;;;;;;;13.50;7.57;;;9.40;92.80;;;;;;4969050;28;20659;-69
2021/03/07 11:07:54;;;;;;;9.55;7.35;;;9.40;92.90;;;;;;4966719;28;20741;-71
2021/03/07 11:10:22;;;;;;;15.23;8.07;;;9.30;92.90;;;;;;4965999;28;20269;-71
2021/03/07 11:12:50;;;;;;;11.13;8.60;;;9.30;93.40;;;;;;4965570;28;20719;-70
2021/03/07 11:15:18;;;;;;;16.67;9.55;;;9.40;94.70;;;;;;4969291;28;20537;-69
2021/03/07 11:17:44;;;;;;;11.13;8.40;;;9.40;94.00;;;;;;4968751;28;20210;-69
2021/03/07 11:20:12;;;;;;;10.27;7.88;;;9.70;96.20;;;;;;4958489;28;20226;-69
2021/03/07 11:22:40;;;;;;;9.55;8.02;;;9.90;94.60;;;;;;4964295;28;20224;-69
2021/03/07 11:25:08;;;;;;;14.13;8.20;;;9.90;94.20;;;;;;4971731;28;20202;-70
2021/03/07 11:27:35;;;;;;;12.60;9.20;;;9.70;92.40;;;;;;4979026;28;20213;-70
2021/03/07 11:30:03;;;;;;;13.88;9.38;;;9.60;92.70;;;;;;4976175;28;20450;-69
2021/03/07 11:32:30;;;;;;;12.18;7.85;;;9.50;92.80;;;;;;4982117;28;20220;-69
2021/03/07 11:34:57;;;;;;;16.15;9.30;;;9.60;94.30;;;;;;4983403;28;20202;-70
2021/03/07 11:37:23;;;;;;;16.40;8.27;;;9.60;93.30;;;;;;4987071;28;20201;-70
2021/03/07 11:39:50;;;;;;;10.80;8.63;;;9.30;93.60;;;;;;4979115;28;20230;-70
2021/03/07 11:42:17;;;;;;;10.30;9.23;;;9.40;93.50;;;;;;4968953;28;20273;-69
2021/03/07 11:44:43;;;;;;;9.90;8.60;;;9.40;94.40;;;;;;4975064;28;20210;-70
2021/03/07 11:47:11;;;;;;;14.77;9.65;;;9.50;94.60;;;;;;4969260;28;20294;-70
2021/03/07 11:49:37;;;;;;;10.73;8.55;;;9.50;93.90;;;;;;4976669;28;20289;-70
2021/03/07 11:52:04;;;;;;;12.30;7.57;;;9.40;94.30;;;;;;4976723;28;20214;-69
2021/03/07 11:54:31;;;;;;;9.40;7.60;;;8.90;94.90;;;;;;4969056;28;20233;-70
2021/03/07 11:56:58;;;;;;;10.50;8.90;;;8.80;95.20;;;;;;4966485;28;20232;-70
2021/03/07 11:59:24;;;;;;;12.02;8.57;;;8.90;95.10;;;;;;4976367;28;20582;-70
2021/03/07 12:01:51;;;;;;;10.32;9.23;;;8.80;95.00;;;;;;4973441;28;20233;-70
2021/03/07 12:04:19;;;;;;;10.68;9.52;;;8.70;95.10;;;;;;4977128;28;20261;-71
2021/03/07 12:06:46;;;;;;;13.10;9.88;;;8.40;95.50;;;;;;4975740;28;20220;-71
2021/03/07 12:09:13;;;;;;;16.20;9.82;;;8.20;95.70;;;;;;4972703;28;20701;-70
2021/03/07 12:11:40;;;;;;;13.02;10.40;;;8.10;96.70;;;;;;4957692;28;20213;-70
2021/03/07 12:14:06;;;;;;;9.70;8.07;;;8.10;96.60;;;;;;4971174;28;20209;-70
2021/03/07 12:16:33;;;;;;;11.10;9.95;;;7.90;96.50;;;;;;4963370;28;20200;-70
2021/03/07 12:19:00;;;;;;;11.70;8.77;;;7.80;97.20;;;;;;4959432;28;20238;-70
2021/03/07 12:21:27;;;;;;;12.50;10.93;;;7.80;97.50;;;;;;4969195;28;20685;-70
2021/03/07 12:23:54;;;;;;;13.55;8.75;;;7.90;97.90;;;;;;4968737;28;20229;-69
2021/03/07 12:26:20;;;;;;;17.60;12.25;;;8.00;98.60;;;;;;4968506;28;20209;-69
2021/03/07 12:28:47;;;;;;;14.70;11.45;;;7.90;98.10;;;;;;4968744;28;20253;-69
2021/03/07 12:31:14;;;;;;;14.70;9.70;;;7.80;97.90;;;;;;4970460;28;20205;-71
2021/03/07 12:33:41;;;;;;;21.10;11.48;;;7.80;97.70;;;;;;4963966;28;20228;-68
2021/03/07 12:36:08;;;;;;;13.55;10.25;;;7.90;98.00;;;;;;4971588;28;20215;-69
2021/03/07 12:38:36;;;;;;;15.43;10.77;;;8.00;98.20;;;;;;4967507;28;20221;-71
2021/03/07 12:41:03;;;;;;;15.45;12.13;;;8.20;97.70;;;;;;4966798;28;20213;-70
2021/03/07 12:43:29;;;;;;;14.20;10.57;;;8.20;97.30;;;;;;4968485;28;20631;-72
2021/03/07 12:46:02;;;;;;;12.90;10.93;;;8.30;97.40;;;;;;4979010;28;20205;-80
2021/03/07 12:48:47;;;;;;;13.90;10.38;;;8.30;97.00;;;;;;4983890;28;20229;-81
2021/03/07 12:51:14;;;;;;;12.95;9.38;;;7.80;97.00;;;;;;4979169;28;20277;-81
2021/03/07 12:53:41;;;;;;;16.63;10.60;;;7.80;98.20;;;;;;4987030;28;20212;-82
2021/03/07 12:56:08;;;;;;;15.15;9.80;;;7.70;98.00;;;;;;4984444;28;20234;-82
2021/03/07 14:24:03;;;;;;;22.85;16.05;;;7.00;99.90;;;;;;4911771;29;20290;-84
2021/03/07 19:51:28;;;;;;;40.95;23.00;;;6.20;99.90;;;;;;4977451;28;20198;-76
2021/03/07 19:53:55;;;;;;;43.03;25.15;;;6.20;99.90;;;;;;4962601;28;20332;-80
2021/03/07 19:56:24;;;;;;;32.90;24.15;;;6.30;99.90;;;;;;4966188;28;20733;-76
2021/03/07 19:58:51;;;;;;;31.73;21.38;;;6.30;99.90;;;;;;4959700;28;20210;-76
2021/03/07 20:01:18;;;;;;;34.90;22.70;;;6.30;99.90;;;;;;4962621;28;20209;-75
2021/03/07 20:03:44;;;;;;;37.40;23.60;;;6.30;99.90;;;;;;4966247;28;20242;-76
2021/03/07 20:06:13;;;;;;;41.78;22.30;;;6.30;99.90;;;;;;4965453;28;20257;-75
2021/03/07 20:08:41;;;;;;;35.80;22.73;;;6.20;99.90;;;;;;4956150;28;20211;-75
2021/03/07 20:11:08;;;;;;;37.17;21.27;;;6.30;99.90;;;;;;4955347;28;20290;-75
2021/03/07 20:13:35;;;;;;;44.55;26.60;;;6.40;99.90;;;;;;4955384;28;20222;-75
2021/03/07 20:16:05;;;;;;;47.47;24.80;;;6.40;99.90;;;;;;4960440;28;20210;-75
2021/03/07 20:18:32;;;;;;;41.95;23.85;;;6.40;99.90;;;;;;4957708;28;20218;-74
2021/03/07 20:20:59;;;;;;;39.50;23.90;;;6.40;99.90;;;;;;4958728;28;20211;-77
2021/03/07 20:23:25;;;;;;;35.25;23.65;;;6.30;99.90;;;;;;4958009;28;20322;-75
2021/03/07 20:25:54;;;;;;;33.20;25.08;;;6.40;99.90;;;;;;4962203;28;20221;-76
2021/03/07 20:28:21;;;;;;;49.63;25.20;;;6.30;99.90;;;;;;4952446;28;20310;-74
2021/03/07 20:30:48;;;;;;;38.63;26.05;;;6.30;99.90;;;;;;4960740;28;20224;-74
2021/03/07 20:33:15;;;;;;;40.65;26.85;;;6.40;99.90;;;;;;4963359;28;20251;-76
2021/03/07 20:35:41;;;;;;;38.47;25.35;;;6.40;99.90;;;;;;4964439;28;20206;-74
2021/03/07 20:38:08;;;;;;;48.92;26.70;;;6.30;99.90;;;;;;4968464;28;20246;-75
2021/03/07 20:40:35;;;;;;;41.42;28.60;;;6.40;99.90;;;;;;4955112;28;20290;-76
2021/03/07 20:43:03;;;;;;;39.25;27.95;;;6.40;99.90;;;;;;4964746;28;20270;-75
2021/03/07 20:45:29;;;;;;;41.70;27.77;;;6.20;99.90;;;;;;4963215;28;20282;-75
2021/03/07 20:47:56;;;;;;;44.88;29.27;;;6.40;99.90;;;;;;4956764;28;20294;-75
2021/03/07 20:50:23;;;;;;;50.50;26.67;;;6.50;99.90;;;;;;4955962;28;20213;-73
2021/03/07 20:52:50;;;;;;;58.63;27.25;;;6.40;99.90;;;;;;4955832;28;20231;-75
2021/03/07 20:55:17;;;;;;;37.38;25.77;;;6.50;99.90;;;;;;4951646;28;20203;-75
2021/03/07 20:57:44;;;;;;;46.50;28.05;;;6.40;99.90;;;;;;4945291;28;20207;-75
2021/03/07 21:00:14;;;;;;;49.28;28.77;;;6.40;99.90;;;;;;4950472;28;20212;-73
2021/03/07 21:02:41;;;;;;;47.72;28.83;;;6.30;99.90;;;;;;4945859;28;20231;-72
2021/03/07 21:05:10;;;;;;;49.85;28.80;;;6.30;99.90;;;;;;4944712;28;20290;-75
2021/03/07 21:07:37;;;;;;;42.08;28.10;;;6.30;99.90;;;;;;4949293;28;20289;-73
2021/03/07 21:10:06;;;;;;;29.30;18.15;;;6.30;99.90;;;;;;4953391;28;20685;-73
2021/03/07 21:12:33;;;;;;;21.60;12.02;;;6.30;99.90;;;;;;4954852;28;20705;-74
2021/03/07 21:15:00;;;;;;;12.43;8.65;;;6.30;99.90;;;;;;4962262;28;20568;-73
2021/03/07 21:17:28;;;;;;;11.00;6.85;;;6.20;99.90;;;;;;4956416;28;20552;-75
2021/03/07 21:19:54;;;;;;;12.85;5.43;;;6.10;99.90;;;;;;4965496;28;20209;-75
2021/03/07 21:22:21;;;;;;;7.40;4.60;;;6.00;99.90;;;;;;4950147;28;20684;-73
2021/03/07 21:24:48;;;;;;;7.05;3.35;;;6.00;99.90;;;;;;4946115;28;20262;-76
2021/03/07 21:27:14;;;;;;;8.60;3.47;;;5.90;99.90;;;;;;4953880;28;20211;-73
2021/03/07 21:29:41;;;;;;;10.90;4.70;;;5.90;99.90;;;;;;4956457;28;20293;-75
2021/03/07 21:32:09;;;;;;;6.15;4.53;;;5.90;99.90;;;;;;4956140;28;20208;-74
2021/03/07 21:34:37;;;;;;;10.75;4.43;;;5.90;99.90;;;;;;4954489;28;20203;-75
2021/03/07 21:53:07;;;;;;;6.88;4.47;;;5.70;99.90;;;;;;4989224;28;20217;-82
2021/03/07 21:55:43;;;;;;;8.98;6.00;;;5.70;99.90;;;;;;4989234;28;20202;-85
2021/03/07 22:01:40;;;;;;;9.40;5.45;;;5.60;99.90;;;;;;4983299;28;20217;-83
2021/03/07 22:04:28;;;;;;;18.02;6.88;;;5.50;99.90;;;;;;4985699;28;20218;-84
2021/03/07 22:08:03;;;;;;;13.15;7.20;;;5.60;99.90;;;;;;4989736;28;20240;-81
2021/03/07 22:14:22;;;;;;;12.48;6.10;;;5.50;99.90;;;;;;4985932;28;20201;-81
2021/03/07 22:16:49;;;;;;;10.07;5.75;;;5.40;99.90;;;;;;4986707;28;20262;-78
2021/03/07 22:19:16;;;;;;;17.90;8.00;;;5.20;99.90;;;;;;4984963;28;20238;-82
2021/03/07 22:21:43;;;;;;;18.65;6.43;;;5.30;99.90;;;;;;4979252;28;20291;-80
2021/03/07 22:24:10;;;;;;;15.38;6.53;;;5.20;99.90;;;;;;4996376;28;20269;-83
2021/03/07 22:26:36;;;;;;;15.25;5.82;;;5.20;99.90;;;;;;4990549;28;20283;-80
2021/03/07 22:29:03;;;;;;;16.95;6.05;;;5.20;99.90;;;;;;4994425;28;20218;-80
2021/03/07 22:31:30;;;;;;;16.58;6.63;;;5.10;99.90;;;;;;4997666;28;20190;-80
2021/03/07 22:33:59;;;;;;;13.98;6.30;;;5.10;99.90;;;;;;4996975;28;20198;-81
2021/03/07 22:36:26;;;;;;;27.10;6.55;;;5.10;99.90;;;;;;4991895;28;20201;-80
2021/03/07 22:38:53;;;;;;;26.08;6.22;;;5.10;99.90;;;;;;4993523;28;20206;-80
2021/03/07 22:41:20;;;;;;;12.18;4.30;;;5.10;99.90;;;;;;4991234;28;20242;-80
2021/03/07 22:43:46;;;;;;;11.52;5.13;;;5.00;99.90;;;;;;4987859;28;20241;-80
2021/03/07 22:46:13;;;;;;;25.13;5.85;;;5.00;99.90;;;;;;4994970;28;20206;-80
2021/03/07 22:48:40;;;;;;;18.13;4.60;;;5.00;99.90;;;;;;4994256;28;20257;-81
2021/03/07 22:51:07;;;;;;;13.80;4.88;;;5.00;99.90;;;;;;4977763;28;20298;-81
2021/03/07 22:53:34;;;;;;;15.48;4.82;;;5.00;99.90;;;;;;4981114;28;20652;-84
2021/03/07 22:56:01;;;;;;;12.88;5.07;;;5.00;99.90;;;;;;4975000;28;20220;-82
2021/03/07 22:58:27;;;;;;;13.23;5.18;;;5.00;99.90;;;;;;4983103;28;20278;-80
2021/03/07 23:00:54;;;;;;;16.10;6.40;;;5.00;99.90;;;;;;4997446;28;20253;-78
2021/03/07 23:03:21;;;;;;;14.52;4.90;;;5.00;99.90;;;;;;4997231;28;20225;-78
2021/03/07 23:05:48;;;;;;;17.02;5.05;;;4.90;99.90;;;;;;4994491;28;20218;-80
2021/03/07 23:08:15;;;;;;;13.85;5.35;;;4.90;99.90;;;;;;4997567;28;20245;-79
2021/03/07 23:10:42;;;;;;;14.02;4.40;;;4.90;99.90;;;;;;4993898;28;20207;-79
2021/03/07 23:13:09;;;;;;;14.82;6.22;;;4.90;99.90;;;;;;4989254;28;20191;-80
2021/03/07 23:15:35;;;;;;;19.08;4.70;;;4.80;99.90;;;;;;4993326;28;20248;-84
2021/03/07 23:18:02;;;;;;;20.40;5.20;;;4.80;99.90;;;;;;4984488;28;20229;-84
2021/03/07 23:20:30;;;;;;;16.30;5.28;;;4.80;99.90;;;;;;4985432;28;20228;-84
2021/03/07 23:22:57;;;;;;;15.98;5.10;;;4.80;99.90;;;;;;4985297;28;20229;-85
2021/03/07 23:25:27;;;;;;;27.17;7.35;;;4.70;99.90;;;;;;4971505;28;20306;-84
2021/03/07 23:27:53;;;;;;;12.68;5.55;;;4.60;99.90;;;;;;4977612;28;20217;-82
2021/03/07 23:30:23;;;;;;;24.20;5.78;;;4.50;99.90;;;;;;4985592;28;20285;-83
2021/03/07 23:32:50;;;;;;;13.57;5.75;;;4.50;99.90;;;;;;4983624;28;20270;-83
2021/03/07 23:35:20;;;;;;;26.15;6.10;;;4.40;99.90;;;;;;4985104;28;20215;-84
2021/03/07 23:37:47;;;;;;;12.60;5.22;;;4.30;99.90;;;;;;4976975;28;20230;-80
2021/03/07 23:40:17;;;;;;;16.63;4.95;;;4.30;99.90;;;;;;4977063;28;20228;-82
2021/03/07 23:42:44;;;;;;;17.73;5.57;;;4.20;99.90;;;;;;4981237;28;20266;-84
2021/03/07 23:45:13;;;;;;;20.42;6.10;;;4.20;99.90;;;;;;4969845;28;20290;-84
2021/03/07 23:47:40;;;;;;;14.15;5.63;;;4.10;99.90;;;;;;4964129;28;20207;-82
2021/03/07 23:50:09;;;;;;;15.63;5.15;;;4.10;99.90;;;;;;4973243;28;20222;-84
2021/03/07 23:52:36;;;;;;;18.40;5.75;;;4.10;99.90;;;;;;4979513;28;20231;-82
2021/03/07 23:55:04;;;;;;;17.48;6.95;;;4.10;99.90;;;;;;4984361;28;20266;-84
2021/03/07 23:57:31;;;;;;;14.48;4.20;;;4.00;99.90;;;;;;4975128;28;20213;-82
2021/03/07 23:59:58;;;;;;;24.05;8.02;;;4.00;99.90;;;;;;4967424;28;20314;-82
